Time;durP1;ratioP1;P1;durP2;ratioP2;P2;SDS_P1;SDS_P2;PMS_P1;PMS_P2;Temp;Humidity;BMP_temperature;BMP_pressure;BME280_temperature;BME280_humidity;BME280_pressure;Samples;Min_cycle;Max_cycle;Signal;HPM_P1;HPM_P2
2023/09/27 00:01:16;;;;;;;3.45;1.95;;;;;;;;;;4945697;28;20050;-84
2023/09/27 00:03:42;;;;;;;3.95;1.73;;;;;;;;;;4948195;28;20023;-87
2023/09/27 00:06:08;;;;;;;4.60;1.92;;;;;;;;;;4952855;28;20063;-85
2023/09/27 00:08:34;;;;;;;7.95;2.85;;;;;;;;;;4940182;28;20024;-87
2023/09/27 00:11:00;;;;;;;4.00;2.25;;;;;;;;;;4949023;28;20387;-86
2023/09/27 00:13:26;;;;;;;4.90;2.65;;;;;;;;;;4942697;28;20043;-87
2023/09/27 00:15:52;;;;;;;5.25;2.80;;;;;;;;;;4945028;28;20501;-86
2023/09/27 00:18:18;;;;;;;5.45;2.90;;;;;;;;;;4945530;28;20166;-87
2023/09/27 00:20:44;;;;;;;5.45;2.75;;;;;;;;;;4947620;28;20047;-86
2023/09/27 00:23:10;;;;;;;6.97;3.25;;;;;;;;;;4948287;28;20023;-85
2023/09/27 00:25:36;;;;;;;6.35;2.45;;;;;;;;;;4949687;28;20075;-85
2023/09/27 00:28:02;;;;;;;6.28;2.88;;;;;;;;;;4941322;28;20039;-85
2023/09/27 00:30:28;;;;;;;7.43;1.92;;;;;;;;;;4959222;28;20034;-87
2023/09/27 00:32:55;;;;;;;6.82;2.85;;;;;;;;;;4942445;28;20035;-86
2023/09/27 00:35:22;;;;;;;4.93;2.53;;;;;;;;;;4945850;28;20509;-84
2023/09/27 00:37:48;;;;;;;4.55;2.67;;;;;;;;;;4946023;28;20031;-89
2023/09/27 00:40:18;;;;;;;6.90;2.78;;;9.30;99.90;;;;;;4943333;28;20513;-83
2023/09/27 00:42:44;;;;;;;5.07;2.72;;;;;;;;;;4932417;28;20105;-87
2023/09/27 00:45:10;;;;;;;4.50;2.00;;;;;;;;;;4930119;29;20154;-83
2023/09/27 00:47:37;;;;;;;4.90;2.63;;;;;;;;;;4935535;28;20406;-82
2023/09/27 00:50:03;;;;;;;5.75;2.30;;;;;;;;;;4926887;28;20035;-86
2023/09/27 00:52:29;;;;;;;4.15;2.28;;;;;;;;;;4944981;28;20071;-88
2023/09/27 00:54:56;;;;;;;4.97;2.35;;;;;;;;;;4948262;28;20061;-84
2023/09/27 00:57:22;;;;;;;5.05;2.63;;;;;;;;;;4948175;28;20038;-85
2023/09/27 00:59:48;;;;;;;4.30;2.28;;;;;;;;;;4940913;28;20478;-85
2023/09/27 01:02:14;;;;;;;6.43;2.45;;;;;;;;;;4943089;28;20035;-85
2023/09/27 01:04:41;;;;;;;5.25;2.63;;;;;;;;;;4946315;29;20324;-86
2023/09/27 01:07:10;;;;;;;8.55;3.15;;;;;;;;;;4945151;28;20059;-84
2023/09/27 01:09:37;;;;;;;8.23;3.65;;;;;;;;;;4947740;28;20058;-83
2023/09/27 01:12:03;;;;;;;4.63;2.50;;;;;;;;;;4936087;28;20040;-86
2023/09/27 01:14:30;;;;;;;5.43;2.72;;;9.40;99.90;;;;;;4937074;28;20486;-87
2023/09/27 01:16:56;;;;;;;5.00;3.10;;;;;;;;;;4936158;28;20034;-90
2023/09/27 01:19:22;;;;;;;6.30;3.30;;;;;;;;;;4940889;28;20019;-84
2023/09/27 01:21:48;;;;;;;5.85;2.92;;;;;;;;;;4942426;28;20030;-87
2023/09/27 01:24:15;;;;;;;6.07;3.13;;;;;;;;;;4941371;28;20023;-84
2023/09/27 01:26:41;;;;;;;5.32;2.53;;;;;;;;;;4944640;28;20114;-86
2023/09/27 01:29:08;;;;;;;10.15;3.17;;;;;;;;;;4947087;28;20482;-84
2023/09/27 01:31:35;;;;;;;5.82;2.92;;;;;;;;;;4948119;28;20482;-83
2023/09/27 01:34:00;;;;;;;5.70;2.97;;;;;;;;;;4944029;28;20178;-82
2023/09/27 01:36:26;;;;;;;6.43;3.58;;;;;;;;;;4952131;28;20114;-83
2023/09/27 01:38:52;;;;;;;5.68;2.85;;;;;;;;;;4942877;28;20383;-82
2023/09/27 01:41:18;;;;;;;5.13;2.97;;;;;;;;;;4944497;28;20034;-84
2023/09/27 01:43:44;;;;;;;4.20;2.63;;;;;;;;;;4944417;28;20106;-86
2023/09/27 01:46:10;;;;;;;6.03;2.83;;;;;;;;;;4946292;28;20031;-86
2023/09/27 01:48:37;;;;;;;5.28;3.00;;;;;;;;;;4964241;28;20023;-83
2023/09/27 01:51:03;;;;;;;5.03;2.75;;;;;;;;;;4949147;28;20035;-83
2023/09/27 01:53:29;;;;;;;6.43;3.78;;;;;;;;;;4949155;28;20039;-87
2023/09/27 01:55:55;;;;;;;6.93;3.38;;;;;;;;;;4949557;28;20533;-83
2023/09/27 01:58:21;;;;;;;5.75;3.35;;;;;;;;;;4949924;28;20577;-85
2023/09/27 02:00:48;;;;;;;5.90;3.30;;;;;;;;;;4967359;28;20023;-88
2023/09/27 02:03:14;;;;;;;6.32;3.53;;;;;;;;;;4970800;28;20011;-90
2023/09/27 02:05:41;;;;;;;7.22;3.80;;;;;;;;;;4963196;28;20083;-89
2023/09/27 02:08:11;;;;;;;11.75;3.78;;;;;;;;;;4954111;28;20034;-85
2023/09/27 02:10:37;;;;;;;5.60;3.50;;;;;;;;;;4956516;28;20055;-86
2023/09/27 02:13:03;;;;;;;7.18;3.17;;;;;;;;;;4952792;28;20054;-88
2023/09/27 02:15:29;;;;;;;6.40;3.42;;;;;;;;;;4950288;28;20089;-86
2023/09/27 02:17:55;;;;;;;5.38;3.33;;;;;;;;;;4948784;28;20070;-89
2023/09/27 02:20:21;;;;;;;7.72;3.90;;;;;;;;;;4953853;28;20051;-85
2023/09/27 02:22:50;;;;;;;20.30;4.32;;;;;;;;;;4952884;28;20032;-86
2023/09/27 02:25:16;;;;;;;10.90;4.18;;;;;;;;;;4953428;28;20058;-87
2023/09/27 02:27:43;;;;;;;7.38;4.38;;;;;;;;;;4953125;28;20122;-86
2023/09/27 02:30:13;;;;;;;6.07;3.03;;;;;;;;;;4949560;28;20031;-85
2023/09/27 02:32:41;;;;;;;8.38;3.20;;;;;;;;;;4952656;28;20038;-88
2023/09/27 02:35:09;;;;;;;8.65;4.30;;;;;;;;;;4952698;28;20055;-86
2023/09/27 02:37:34;;;;;;;6.82;3.45;;;;;;;;;;4953835;28;20034;-86
2023/09/27 02:40:00;;;;;;;7.88;4.63;;;;;;;;;;4950041;28;20343;-86
2023/09/27 02:42:26;;;;;;;10.15;3.75;;;;;;;;;;4944476;28;20082;-86
2023/09/27 02:44:52;;;;;;;7.93;4.40;;;;;;;;;;4952081;28;20027;-86
2023/09/27 02:47:18;;;;;;;19.48;5.60;;;;;;;;;;4955449;29;20038;-86
2023/09/27 02:49:44;;;;;;;8.00;4.38;;;;;;;;;;4949579;29;20031;-86
2023/09/27 02:52:11;;;;;;;8.02;4.07;;;;;;;;;;4949270;28;20112;-89
2023/09/27 02:54:37;;;;;;;14.20;4.25;;;;;;;;;;4947013;28;20478;-88
2023/09/27 02:57:03;;;;;;;8.60;4.38;;;;;;;;;;4940354;28;22781;-85
2023/09/27 02:59:29;;;;;;;9.05;4.93;;;;;;;;;;4939962;28;20114;-84
2023/09/27 03:01:55;;;;;;;8.50;4.53;;;;;;;;;;4959520;28;20095;-83
2023/09/27 03:04:21;;;;;;;7.50;4.10;;;;;;;;;;4947244;28;20051;-83
2023/09/27 03:06:48;;;;;;;8.68;4.30;;;;;;;;;;4949203;28;20031;-83
2023/09/27 03:09:16;;;;;;;8.10;3.58;;;;;;;;;;4949382;28;20026;-87
2023/09/27 03:11:43;;;;;;;7.80;4.10;;;;;;;;;;4946029;28;20034;-82
2023/09/27 03:14:09;;;;;;;11.45;4.28;;;;;;;;;;4943189;28;20041;-85
2023/09/27 03:16:35;;;;;;;10.43;5.07;;;;;;;;;;4948562;29;20434;-88
2023/09/27 03:19:01;;;;;;;7.68;4.05;;;;;;;;;;4947770;28;20035;-85
2023/09/27 03:21:27;;;;;;;8.77;4.53;;;;;;;;;;4951178;28;20035;-85
2023/09/27 03:23:56;;;;;;;10.32;4.63;;;;;;;;;;4945900;28;20127;-88
2023/09/27 03:26:23;;;;;;;7.88;4.68;;;;;;;;;;4941642;28;20054;-84
2023/09/27 03:28:52;;;;;;;9.80;4.88;;;;;;;;;;4949507;28;20050;-84
2023/09/27 03:31:20;;;;;;;9.50;4.63;;;;;;;;;;4949284;28;20727;-84
2023/09/27 03:33:46;;;;;;;13.10;5.97;;;;;;;;;;4949123;29;20031;-83
2023/09/27 03:36:12;;;;;;;9.45;4.78;;;;;;;;;;4946162;28;20052;-84
2023/09/27 03:38:38;;;;;;;13.57;4.82;;;;;;;;;;4950106;28;20155;-84
2023/09/27 03:41:14;;;;;;;9.70;5.32;;;;;;;;;;4942934;28;20402;-83
2023/09/27 03:43:40;;;;;;;8.95;4.90;;;;;;;;;;4944220;28;20039;-82
2023/09/27 03:46:06;;;;;;;17.10;5.95;;;;;;;;;;4938249;28;21681;-85
2023/09/27 03:48:32;;;;;;;9.90;5.05;;;;;;;;;;4936640;28;20380;-84
2023/09/27 03:50:58;;;;;;;9.98;4.88;;;;;;;;;;4938856;28;21235;-87
2023/09/27 03:53:24;;;;;;;11.45;6.03;;;;;;;;;;4940668;28;20031;-83
2023/09/27 03:55:50;;;;;;;10.40;5.20;;;;;;;;;;4939701;29;20103;-87
2023/09/27 03:58:17;;;;;;;9.00;5.10;;;;;;;;;;4935548;28;20126;-83
2023/09/27 04:00:44;;;;;;;10.27;5.25;;;;;;;;;;4931432;28;20024;-84
2023/09/27 04:03:10;;;;;;;9.73;4.72;;;;;;;;;;4936586;28;20106;-87
2023/09/27 04:05:36;;;;;;;10.27;5.13;;;;;;;;;;4938287;28;20037;-83
2023/09/27 04:08:02;;;;;;;8.98;4.50;;;;;;;;;;4936851;28;20461;-82
2023/09/27 04:10:29;;;;;;;11.25;6.22;;;;;;;;;;4936540;28;20115;-83
2023/09/27 04:12:55;;;;;;;13.65;6.13;;;;;;;;;;4942768;28;20023;-84
2023/09/27 04:15:21;;;;;;;15.10;6.50;;;;;;;;;;4928886;28;20091;-83
2023/09/27 04:17:47;;;;;;;11.48;6.25;;;;;;;;;;4937679;29;20027;-83
2023/09/27 04:20:19;;;;;;;11.70;5.90;;;;;;;;;;4942562;28;20030;-85
2023/09/27 04:22:47;;;;;;;11.45;6.15;;;;;;;;;;4943686;28;20019;-81
2023/09/27 04:25:14;;;;;;;12.48;6.60;;;;;;;;;;4925151;28;20592;-84
2023/09/27 04:27:43;;;;;;;10.30;5.90;;;;;;;;;;4934694;28;20027;-84
2023/09/27 04:30:12;;;;;;;10.40;5.55;;;;;;;;;;4931109;28;20031;-86
2023/09/27 04:32:42;;;;;;;14.68;6.70;;;;;;;;;;4938662;28;20102;-84
2023/09/27 04:35:09;;;;;;;11.73;5.47;;;;;;;;;;4941912;28;20027;-82
2023/09/27 04:37:38;;;;;;;12.43;5.75;;;;;;;;;;4938257;28;20630;-82
2023/09/27 04:40:14;;;;;;;16.90;6.35;;;;;;;;;;4945721;28;20114;-84
2023/09/27 04:42:40;;;;;;;14.52;6.18;;;;;;;;;;4939073;28;20516;-86
2023/09/27 04:45:07;;;;;;;12.32;6.38;;;;;;;;;;4922953;28;20245;-91
2023/09/27 04:47:33;;;;;;;13.57;5.53;;;;;;;;;;4936653;28;20023;-87
2023/09/27 04:49:59;;;;;;;14.65;7.50;;;;;;;;;;4944116;28;20035;-84
2023/09/27 04:52:25;;;;;;;12.50;6.03;;;;;;;;;;4943882;28;20046;-85
2023/09/27 04:54:55;;;;;;;12.75;5.55;;;;;;;;;;4936892;28;20031;-88
2023/09/27 04:57:21;;;;;;;12.70;6.13;;;;;;;;;;4944497;29;20028;-81
2023/09/27 04:59:48;;;;;;;11.80;6.45;;;;;;;;;;4948880;28;20047;-85
2023/09/27 05:02:14;;;;;;;12.18;5.95;;;;;;;;;;4948148;28;20019;-86
2023/09/27 05:04:40;;;;;;;17.17;6.05;;;;;;;;;;4943646;29;20031;-88
2023/09/27 05:07:06;;;;;;;13.77;6.38;;;;;;;;;;4947446;28;20024;-82
2023/09/27 05:09:32;;;;;;;19.40;7.40;;;;;;;;;;4947074;28;20062;-84
2023/09/27 05:11:58;;;;;;;20.58;7.50;;;;;;;;;;4938921;29;20020;-92
2023/09/27 05:14:24;;;;;;;15.77;6.32;;;;;;;;;;4944119;29;20528;-86
2023/09/27 05:16:50;;;;;;;12.70;6.30;;;;;;;;;;4943681;28;20043;-84
2023/09/27 05:19:16;;;;;;;12.93;6.70;;;;;;;;;;4937539;28;20032;-84
2023/09/27 05:21:43;;;;;;;19.13;7.63;;;;;;;;;;4947442;28;20394;-83
2023/09/27 05:24:09;;;;;;;15.75;7.68;;;;;;;;;;4939370;29;20039;-86
2023/09/27 05:26:35;;;;;;;15.98;7.00;;;;;;;;;;4939299;28;20035;-86
2023/09/27 05:29:03;;;;;;;19.35;8.30;;;;;;;;;;4959733;28;20407;-85
2023/09/27 05:31:29;;;;;;;18.45;8.10;;;;;;;;;;4943345;28;20034;-85
2023/09/27 05:33:55;;;;;;;21.15;7.88;;;;;;;;;;4944987;28;20487;-85
2023/09/27 05:36:21;;;;;;;14.35;6.60;;;;;;;;;;4941260;28;20180;-88
2023/09/27 05:38:47;;;;;;;13.20;6.70;;;;;;;;;;4947512;28;20081;-84
2023/09/27 05:41:13;;;;;;;13.57;6.22;;;;;;;;;;4942734;28;20027;-85
2023/09/27 05:43:39;;;;;;;11.75;5.95;;;10.00;99.90;;;;;;4943254;28;20098;-83
2023/09/27 05:46:05;;;;;;;12.75;6.45;;;;;;;;;;4949334;29;20058;-82
2023/09/27 05:48:31;;;;;;;12.40;5.85;;;;;;;;;;4951307;28;20647;-85
2023/09/27 05:50:57;;;;;;;12.23;6.05;;;;;;;;;;4946358;28;20039;-85
2023/09/27 05:53:23;;;;;;;24.00;7.03;;;;;;;;;;4944032;28;20039;-85
2023/09/27 05:55:49;;;;;;;15.45;6.53;;;;;;;;;;4946581;28;20171;-85
2023/09/27 05:58:15;;;;;;;15.38;6.22;;;;;;;;;;4944417;28;20031;-87
2023/09/27 06:00:46;;;;;;;14.50;7.80;;;;;;;;;;4949400;28;20033;-86
2023/09/27 06:03:12;;;;;;;14.63;6.75;;;;;;;;;;4950205;29;20031;-82
2023/09/27 06:05:39;;;;;;;12.77;6.32;;;9.80;99.90;;;;;;4949454;28;20031;-83
2023/09/27 06:08:05;;;;;;;21.02;7.35;;;;;;;;;;4948629;28;20029;-83
2023/09/27 06:10:31;;;;;;;18.10;6.40;;;;;;;;;;4970194;28;20023;-84
2023/09/27 06:12:57;;;;;;;16.40;8.15;;;;;;;;;;4973060;28;20042;-88
2023/09/27 06:15:23;;;;;;;14.07;8.32;;;;;;;;;;4962710;28;20059;-85
2023/09/27 06:17:49;;;;;;;12.30;6.68;;;;;;;;;;4960259;28;20693;-86
2023/09/27 06:20:22;;;;;;;19.02;7.20;;;;;;;;;;4959383;28;20039;-88
2023/09/27 06:22:49;;;;;;;14.90;6.25;;;;;;;;;;4957118;28;20509;-83
2023/09/27 06:25:18;;;;;;;11.70;6.85;;;10.30;99.90;;;;;;4957834;28;20478;-85
2023/09/27 06:27:44;;;;;;;12.43;6.40;;;;;;;;;;4956568;29;20433;-82
2023/09/27 06:30:11;;;;;;;12.77;6.95;;;;;;;;;;4947270;28;20047;-83
2023/09/27 06:32:37;;;;;;;12.10;5.47;;;;;;;;;;4953406;28;20027;-85
2023/09/27 06:35:12;;;;;;;14.23;7.30;;;;;;;;;;4952646;28;20106;-88
2023/09/27 06:37:39;;;;;;;11.23;5.75;;;;;;;;;;4948672;28;20030;-83
2023/09/27 06:40:08;;;;;;;14.63;6.90;;;;;;;;;;4952652;28;20043;-83
2023/09/27 06:42:34;;;;;;;11.10;6.18;;;;;;;;;;4945474;28;20493;-86
2023/09/27 06:45:01;;;;;;;12.02;5.80;;;;;;;;;;4946707;28;20031;-83
2023/09/27 06:47:31;;;;;;;11.90;6.07;;;;;;;;;;4952054;28;20020;-84
2023/09/27 06:49:57;;;;;;;10.85;5.60;;;;;;;;;;4948871;28;20414;-84
2023/09/27 06:52:23;;;;;;;9.15;5.13;;;;;;;;;;4946488;28;20032;-85
2023/09/27 06:54:49;;;;;;;11.98;5.35;;;;;;;;;;4950553;28;20626;-84
2023/09/27 06:57:15;;;;;;;11.52;5.38;;;;;;;;;;4951133;28;20131;-83
2023/09/27 06:59:41;;;;;;;14.52;5.38;;;;;;;;;;4956100;28;20046;-83
2023/09/27 07:02:08;;;;;;;10.13;6.05;;;;;;;;;;4953759;29;20300;-84
2023/09/27 07:04:34;;;;;;;10.73;5.20;;;;;;;;;;4956221;28;20031;-84
2023/09/27 07:07:00;;;;;;;11.77;5.57;;;;;;;;;;4953996;28;20027;-83
2023/09/27 07:09:26;;;;;;;11.15;4.78;;;;;;;;;;4957534;28;20026;-87
2023/09/27 07:11:52;;;;;;;9.25;4.68;;;;;;;;;;4956306;28;20402;-86
2023/09/27 07:14:20;;;;;;;8.18;4.65;;;;;;;;;;4951926;28;20067;-85
2023/09/27 07:16:46;;;;;;;28.55;5.57;;;;;;;;;;4955327;28;20035;-84
2023/09/27 07:19:13;;;;;;;15.20;6.15;;;;;;;;;;4956951;28;20099;-86
2023/09/27 07:21:39;;;;;;;11.27;6.00;;;;;;;;;;4955109;28;20028;-85
2023/09/27 07:24:05;;;;;;;7.30;4.18;;;;;;;;;;4954948;28;20122;-86
2023/09/27 07:26:31;;;;;;;6.70;4.15;;;;;;;;;;4956923;28;20031;-86
2023/09/27 07:28:57;;;;;;;9.50;5.30;;;;;;;;;;4955990;28;20031;-87
2023/09/27 07:31:26;;;;;;;13.82;5.53;;;;;;;;;;4953303;28;20039;-84
2023/09/27 07:33:54;;;;;;;11.27;5.40;;;12.60;99.90;;;;;;4955428;28;20034;-84
2023/09/27 07:36:22;;;;;;;11.88;5.30;;;;;;;;;;4956359;28;20054;-86
2023/09/27 07:38:48;;;;;;;10.93;5.47;;;;;;;;;;4954506;28;20582;-85
2023/09/27 07:41:15;;;;;;;9.35;5.22;;;12.80;99.90;;;;;;4952067;28;20027;-83
2023/09/27 07:43:41;;;;;;;10.75;5.60;;;12.50;99.90;;;;;;4953069;29;20035;-85
2023/09/27 07:46:07;;;;;;;12.27;6.10;;;;;;;;;;4954718;28;20031;-87
2023/09/27 07:48:35;;;;;;;13.55;6.97;;;12.70;99.90;;;;;;4953447;29;20083;-86
2023/09/27 07:51:02;;;;;;;12.55;5.97;;;;;;;;;;4951330;28;20052;-85
2023/09/27 07:53:28;;;;;;;14.25;6.78;;;;;;;;;;4951536;28;20066;-84
2023/09/27 07:55:56;;;;;;;12.73;6.78;;;;;;;;;;4954949;28;20027;-85
2023/09/27 07:58:22;;;;;;;13.55;6.85;;;;;;;;;;4953565;28;20015;-88
2023/09/27 08:00:48;;;;;;;19.50;7.10;;;;;;;;;;4953994;28;20046;-84
2023/09/27 08:03:15;;;;;;;14.15;6.93;;;;;;;;;;4954404;28;20023;-85
2023/09/27 08:05:45;;;;;;;14.32;7.05;;;;;;;;;;4962819;28;20027;-88
2023/09/27 08:08:11;;;;;;;22.70;11.00;;;;;;;;;;4952051;29;20028;-84
2023/09/27 08:10:43;;;;;;;26.10;10.73;;;;;;;;;;4952100;28;20103;-88
2023/09/27 08:13:09;;;;;;;16.52;7.70;;;;;;;;;;4952617;28;20015;-88
2023/09/27 08:15:35;;;;;;;13.73;5.63;;;;;;;;;;4952984;28;20032;-87
2023/09/27 08:18:02;;;;;;;8.75;4.90;;;;;;;;;;4950663;28;20100;-85
2023/09/27 08:20:28;;;;;;;7.65;3.88;;;;;;;;;;4952366;28;20047;-83
2023/09/27 08:22:54;;;;;;;8.20;4.88;;;;;;;;;;4950742;28;20054;-88
2023/09/27 08:25:21;;;;;;;11.93;5.22;;;;;;;;;;4947327;28;20368;-89
2023/09/27 08:27:50;;;;;;;10.32;4.60;;;;;;;;;;4952485;29;20031;-87
2023/09/27 08:30:16;;;;;;;10.20;4.93;;;;;;;;;;4949108;28;20062;-85
2023/09/27 08:32:43;;;;;;;9.30;4.85;;;;;;;;;;4948878;28;20055;-83
2023/09/27 08:35:09;;;;;;;10.23;4.68;;;;;;;;;;4948470;28;20089;-86
2023/09/27 08:37:35;;;;;;;11.85;6.22;;;;;;;;;;4951806;28;20408;-86
2023/09/27 08:40:05;;;;;;;12.32;5.07;;;;;;;;;;4951728;28;20026;-87
2023/09/27 08:42:32;;;;;;;10.13;4.75;;;23.20;99.90;;;;;;4949288;28;20027;-89
2023/09/27 08:44:58;;;;;;;12.82;3.28;;;24.10;99.90;;;;;;4944569;28;20173;-85
2023/09/27 08:47:24;;;;;;;4.50;2.72;;;;;;;;;;4951549;28;20044;-83
2023/09/27 08:49:51;;;;;;;5.88;3.17;;;;;;;;;;4946806;28;20164;-86
2023/09/27 08:52:17;;;;;;;13.15;4.45;;;;;;;;;;4946428;28;20039;-86
2023/09/27 08:54:43;;;;;;;5.78;3.10;;;;;;;;;;4947862;28;20049;-83
2023/09/27 08:57:10;;;;;;;4.70;2.60;;;;;;;;;;4950639;28;20144;-83
2023/09/27 08:59:36;;;;;;;5.57;2.92;;;;;;;;;;4951434;28;20034;-83
2023/09/27 09:02:06;;;;;;;4.45;2.67;;;;;;;;;;4947788;28;20046;-87
2023/09/27 09:04:32;;;;;;;6.25;3.13;;;;;;;;;;4942120;28;20031;-86
2023/09/27 09:07:01;;;;;;;6.25;3.13;;;;;;;;;;4946064;28;20061;-83
2023/09/27 09:09:28;;;;;;;4.85;3.10;;;;;;;;;;4947896;28;20098;-84
2023/09/27 09:11:57;;;;;;;4.93;2.63;;;;;;;;;;4950831;28;20027;-86
2023/09/27 09:14:45;;;;;;;4.32;2.92;;;21.10;99.90;;;;;;4948628;28;20035;-83
2023/09/27 09:17:12;;;;;;;9.27;3.55;;;20.60;99.90;;;;;;4963036;28;20023;-85
2023/09/27 09:19:38;;;;;;;5.80;2.95;;;;;;;;;;4950062;28;20410;-86
2023/09/27 09:22:08;;;;;;;7.00;3.42;;;;;;;;;;4944203;28;20406;-84
2023/09/27 09:24:45;;;;;;;4.85;2.80;;;;;;;;;;4949659;28;20038;-84
2023/09/27 09:27:10;;;;;;;41.53;6.45;;;;;;;;;;4950504;29;20035;-88
2023/09/27 09:29:46;;;;;;;6.13;3.20;;;20.40;99.90;;;;;;4951469;28;20097;-86
2023/09/27 09:32:13;;;;;;;4.90;3.20;;;;;;;;;;4950718;29;20058;-82
2023/09/27 09:34:42;;;;;;;5.03;3.17;;;;;;;;;;4952998;28;20023;-84
2023/09/27 09:37:23;;;;;;;8.77;3.75;;;20.70;99.90;;;;;;4947878;28;20410;-84
2023/09/27 09:39:50;;;;;;;4.93;3.28;;;;;;;;;;4949975;28;20567;-86
2023/09/27 09:42:34;;;;;;;4.90;3.22;;;20.70;99.90;;;;;;4950677;28;20048;-85
2023/09/27 09:45:00;;;;;;;4.68;3.00;;;;;;;;;;4949494;28;20431;-86
2023/09/27 09:47:26;;;;;;;4.28;2.42;;;;;;;;;;4948506;28;20031;-86
2023/09/27 09:49:53;;;;;;;12.55;3.10;;;;;;;;;;4952620;28;20035;-86
2023/09/27 09:52:25;;;;;;;7.68;2.72;;;21.00;99.90;;;;;;4952348;28;20450;-82
2023/09/27 09:54:55;;;;;;;5.50;2.83;;;;;;;;;;4954101;28;20035;-83
2023/09/27 09:57:22;;;;;;;5.55;3.00;;;;;;;;;;4952388;28;20038;-90
2023/09/27 10:00:25;;;;;;;6.00;2.80;;;;;;;;;;4955822;28;20043;-84
2023/09/27 10:02:59;;;;;;;5.10;3.63;;;;;;;;;;4950064;28;20027;-82
2023/09/27 10:05:26;;;;;;;6.22;2.80;;;;;;;;;;4954715;28;20078;-84
2023/09/27 10:07:52;;;;;;;4.78;2.42;;;22.00;99.90;;;;;;4949238;28;20490;-83
2023/09/27 10:10:18;;;;;;;5.60;2.47;;;;;;;;;;4953194;28;20086;-82
2023/09/27 10:12:46;;;;;;;4.47;2.90;;;21.90;99.90;;;;;;4953838;28;20035;-83
2023/09/27 10:15:13;;;;;;;5.57;2.75;;;;;;;;;;4955215;28;20453;-81
2023/09/27 10:17:39;;;;;;;6.30;2.53;;;;;;;;;;4953060;28;20020;-86
2023/09/27 10:20:19;;;;;;;7.30;2.20;;;22.10;99.90;;;;;;4950851;28;20059;-84
2023/09/27 10:22:46;;;;;;;5.60;2.88;;;;;;;;;;4956210;28;20070;-89
2023/09/27 10:25:23;;;;;;;7.53;2.58;;;22.40;99.90;;;;;;4976565;28;20019;-88
2023/09/27 10:28:01;;;;;;;4.68;2.88;;;22.10;99.90;;;;;;4971544;28;20035;-89
2023/09/27 10:30:48;;;;;;;4.25;2.22;;;22.90;99.90;;;;;;4952688;29;20027;-89
2023/09/27 10:33:17;;;;;;;11.38;2.50;;;;;;;;;;4949929;28;20494;-87
2023/09/27 10:36:10;;;;;;;7.45;2.05;;;22.30;99.90;;;;;;4954022;28;20434;-86
2023/09/27 10:38:42;;;;;;;8.38;3.83;;;22.80;99.90;;;;;;4944914;29;20042;-86
2023/09/27 10:41:07;;;;;;;4.88;1.70;;;;;;;;;;4953994;28;20485;-84
2023/09/27 10:43:38;;;;;;;8.82;2.75;;;22.80;99.90;;;;;;4956608;28;20035;-87
2023/09/27 10:46:04;;;;;;;4.60;1.98;;;22.80;99.90;;;;;;4958972;29;20059;-83
2023/09/27 10:48:31;;;;;;;4.10;2.35;;;;;;;;;;4958792;28;20035;-89
2023/09/27 10:50:57;;;;;;;8.10;2.20;;;;;;;;;;4953766;28;20035;-87
2023/09/27 10:53:23;;;;;;;25.25;5.25;;;;;;;;;;4956465;28;20031;-85
2023/09/27 10:55:49;;;;;;;5.68;1.98;;;;;;;;;;4957578;29;20426;-86
2023/09/27 10:58:16;;;;;;;7.20;3.45;;;;;;;;;;4953439;28;20031;-89
2023/09/27 11:00:55;;;;;;;4.63;2.20;;;;;;;;;;4950922;28;20024;-85
2023/09/27 11:03:21;;;;;;;8.95;2.90;;;;;;;;;;4950431;28;20042;-84
2023/09/27 11:05:47;;;;;;;5.03;1.75;;;;;;;;;;4948064;28;20770;-85
2023/09/27 11:08:19;;;;;;;11.90;2.28;;;;;;;;;;4945878;28;20170;-87
2023/09/27 11:10:45;;;;;;;3.50;1.88;;;;;;;;;;4950709;28;20029;-87
2023/09/27 11:13:12;;;;;;;5.70;2.58;;;24.00;99.90;;;;;;4944438;28;20050;-85
2023/09/27 11:15:39;;;;;;;25.02;4.53;;;;;;;;;;4948258;28;20031;-88
2023/09/27 11:18:07;;;;;;;7.25;3.58;;;;;;;;;;4949079;28;20501;-83
2023/09/27 11:20:33;;;;;;;10.30;4.05;;;;;;;;;;4925752;28;20165;-86
2023/09/27 11:22:59;;;;;;;5.40;2.65;;;;;;;;;;4928253;28;20545;-81
2023/09/27 11:25:26;;;;;;;5.05;2.50;;;;;;;;;;4948118;29;20062;-83
2023/09/27 11:27:52;;;;;;;6.90;2.08;;;;;;;;;;4937844;28;20113;-83
2023/09/27 11:30:28;;;;;;;17.48;2.83;;;23.40;99.90;;;;;;4942907;28;20083;-83
2023/09/27 11:32:54;;;;;;;10.63;1.90;;;;;;;;;;4939021;28;20067;-84
2023/09/27 11:35:20;;;;;;;6.32;2.53;;;;;;;;;;4934939;28;20141;-86
2023/09/27 11:37:47;;;;;;;4.88;2.00;;;;;;;;;;4943504;28;20039;-84
2023/09/27 11:40:13;;;;;;;11.68;1.67;;;;;;;;;;4943179;28;20027;-81
2023/09/27 11:42:39;;;;;;;3.60;2.22;;;;;;;;;;4933744;28;20039;-90
2023/09/27 11:45:08;;;;;;;4.18;2.13;;;;;;;;;;4936020;28;20405;-86
2023/09/27 11:47:47;;;;;;;2.30;1.38;;;24.50;99.90;;;;;;4945177;28;20050;-84
2023/09/27 11:50:13;;;;;;;2.85;1.27;;;;;;;;;;4936004;28;20030;-84
2023/09/27 11:52:39;;;;;;;6.55;2.05;;;;;;;;;;4934934;28;20114;-85
2023/09/27 11:55:06;;;;;;;3.17;2.15;;;;;;;;;;4931926;28;20397;-82
2023/09/27 11:57:32;;;;;;;3.42;1.80;;;;;;;;;;4939590;28;20163;-87
2023/09/27 11:59:58;;;;;;;3.70;1.30;;;;;;;;;;4944670;28;20023;-87
2023/09/27 12:02:24;;;;;;;3.90;1.80;;;;;;;;;;4952987;28;20038;-83
2023/09/27 12:04:50;;;;;;;3.17;1.83;;;;;;;;;;4944104;28;20091;-85
2023/09/27 12:07:16;;;;;;;4.70;2.08;;;;;;;;;;4950656;28;20035;-84
2023/09/27 12:09:42;;;;;;;8.38;2.22;;;;;;;;;;4946839;28;20031;-86
2023/09/27 12:12:08;;;;;;;3.50;1.98;;;;;;;;;;4944306;28;20046;-83
2023/09/27 12:14:33;;;;;;;3.33;2.00;;;24.90;99.90;;;;;;4948546;28;20027;-83
2023/09/27 12:16:59;;;;;;;4.28;2.05;;;25.20;99.90;;;;;;4937804;28;20091;-81
2023/09/27 12:19:25;;;;;;;6.97;2.72;;;;;;;;;;4952397;28;20129;-83
2023/09/27 12:21:51;;;;;;;9.57;2.20;;;;;;;;;;4940870;28;20039;-85
2023/09/27 12:24:17;;;;;;;3.85;2.22;;;;;;;;;;4951569;28;20066;-82
2023/09/27 12:26:43;;;;;;;2.83;1.48;;;;;;;;;;4953568;28;20051;-84
2023/09/27 12:29:09;;;;;;;8.25;1.63;;;;;;;;;;4949859;28;20028;-84
2023/09/27 12:31:35;;;;;;;2.75;1.85;;;;;;;;;;4953186;28;20031;-84
2023/09/27 12:34:01;;;;;;;2.78;1.55;;;;;;;;;;4952163;28;20033;-87
2023/09/27 12:36:27;;;;;;;5.93;2.00;;;;;;;;;;4944486;28;20031;-82
2023/09/27 12:38:53;;;;;;;5.03;2.00;;;;;;;;;;4944324;28;20031;-84
2023/09/27 12:41:22;;;;;;;8.63;1.98;;;;;;;;;;4948002;28;20024;-84
2023/09/27 12:43:47;;;;;;;3.38;1.50;;;25.50;99.90;;;;;;4942390;28;20490;-81
2023/09/27 12:46:14;;;;;;;2.58;1.63;;;;;;;;;;4949519;28;20032;-83
2023/09/27 12:48:40;;;;;;;3.42;2.00;;;;;;;;;;4950666;28;21894;-83
2023/09/27 12:51:07;;;;;;;4.03;1.73;;;;;;;;;;4940119;28;20105;-85
2023/09/27 12:53:33;;;;;;;3.78;1.90;;;;;;;;;;4951538;28;20031;-82
2023/09/27 12:55:59;;;;;;;12.63;4.57;;;;;;;;;;4939918;28;20036;-83
2023/09/27 12:58:25;;;;;;;18.65;4.88;;;;;;;;;;4939712;28;20062;-84
2023/09/27 13:00:51;;;;;;;27.38;6.82;;;25.10;99.90;;;;;;4941925;28;20062;-86
2023/09/27 13:03:17;;;;;;;9.05;4.00;;;;;;;;;;4945447;28;20032;-85
2023/09/27 13:05:43;;;;;;;14.15;6.07;;;;;;;;;;4951738;28;20098;-84
2023/09/27 13:08:09;;;;;;;6.03;2.50;;;;;;;;;;4932603;28;20506;-83
2023/09/27 13:10:35;;;;;;;6.68;2.83;;;;;;;;;;4939650;28;20106;-84
2023/09/27 13:13:02;;;;;;;8.43;1.63;;;;;;;;;;4931095;28;20836;-83
2023/09/27 13:15:27;;;;;;;8.40;3.08;;;;;;;;;;4941484;28;20243;-83
2023/09/27 13:17:53;;;;;;;5.60;2.70;;;;;;;;;;4944962;28;20036;-82
2023/09/27 13:20:19;;;;;;;3.63;1.80;;;;;;;;;;4922584;28;20035;-83
2023/09/27 13:22:48;;;;;;;3.67;1.95;;;;;;;;;;4948258;28;20051;-85
2023/09/27 13:25:15;;;;;;;3.38;2.15;;;24.90;99.90;;;;;;4945276;28;20034;-83
2023/09/27 13:27:41;;;;;;;5.63;1.80;;;;;;;;;;4941180;28;20082;-87
2023/09/27 13:30:07;;;;;;;2.55;1.48;;;;;;;;;;4946802;28;20032;-83
2023/09/27 13:32:34;;;;;;;7.75;2.88;;;;;;;;;;4947039;28;20042;-83
2023/09/27 13:35:00;;;;;;;5.65;2.08;;;;;;;;;;4946727;28;20031;-88
2023/09/27 13:37:27;;;;;;;3.75;2.38;;;;;;;;;;4948596;28;20104;-85
2023/09/27 13:39:53;;;;;;;6.45;2.15;;;;;;;;;;4951752;28;20055;-84
2023/09/27 13:42:19;;;;;;;5.55;1.63;;;;;;;;;;4942834;28;20070;-83
2023/09/27 13:44:48;;;;;;;2.78;1.63;;;;;;;;;;4935669;28;20038;-84
2023/09/27 13:47:14;;;;;;;2.20;1.48;;;;;;;;;;4948097;28;20447;-83
2023/09/27 13:49:40;;;;;;;7.45;1.58;;;;;;;;;;4947320;28;20131;-83
2023/09/27 13:52:06;;;;;;;2.72;1.77;;;;;;;;;;4942357;28;20377;-81
2023/09/27 13:54:32;;;;;;;7.38;4.05;;;;;;;;;;4947384;28;21870;-83
2023/09/27 13:56:58;;;;;;;4.65;2.28;;;;;;;;;;4948355;28;20027;-82
2023/09/27 13:59:25;;;;;;;3.72;1.90;;;;;;;;;;4946237;28;20338;-81
2023/09/27 14:01:51;;;;;;;1.85;1.30;;;;;;;;;;4935982;28;20098;-84
2023/09/27 14:04:17;;;;;;;3.63;1.65;;;;;;;;;;4950024;28;20562;-84
2023/09/27 14:06:43;;;;;;;2.28;1.15;;;;;;;;;;4938034;28;20035;-81
2023/09/27 14:09:09;;;;;;;6.10;2.35;;;;;;;;;;4948164;28;20687;-81
2023/09/27 14:11:35;;;;;;;3.40;1.63;;;24.90;99.90;;;;;;4946386;28;20036;-83
2023/09/27 14:14:02;;;;;;;5.80;2.08;;;;;;;;;;4947345;28;20023;-85
2023/09/27 14:16:28;;;;;;;7.95;2.55;;;;;;;;;;4940923;28;20253;-87
2023/09/27 14:18:54;;;;;;;4.30;1.38;;;;;;;;;;4942236;28;20561;-84
2023/09/27 14:21:20;;;;;;;4.30;1.52;;;;;;;;;;4944329;28;20031;-82
2023/09/27 14:23:46;;;;;;;5.63;1.90;;;;;;;;;;4940602;28;20038;-82